www.cux-wetter.de
Wetterdaten: Woche 30.07.07 - 05.08.07 (KW31)
Datum Zeit Temp. A. Feuchte A. Luftdruck Regen Wind Richtung Sonnenschein Solar Taupunkt Windchill Windben
30.07.2007 00:00 13,3 C 77 % 1006,5 hPa 0,0 l/m 27,3 km/h (5 Bft) N 0,00 h 0 W/m 9,4 C 5,9 C 27,3 km/h (5 Bft)
30.07.2007 01:00 13,4 C 75 % 1006,5 hPa 0,0 l/m 27,9 km/h (5 Bft) NW 0,00 h 0 W/m 9,0 C 5,9 C 27,9 km/h (5 Bft)
30.07.2007 02:00 13,3 C 73 % 1006,5 hPa 1,2 l/m 29,1 km/h (5 Bft) NW 0,00 h 0 W/m 8,6 C 5,6 C 29,1 km/h (5 Bft)
30.07.2007 03:00 12,3 C 81 % 1006,5 hPa 2,7 l/m 26,4 km/h (4 Bft) NW 0,00 h 0 W/m 9,2 C 4,8 C 26,4 km/h (4 Bft)
30.07.2007 04:00 12,8 C 81 % 1006,5 hPa 0,0 l/m 30,8 km/h (5 Bft) NW 0,00 h 0 W/m 9,6 C 4,4 C 30,8 km/h (5 Bft)
30.07.2007 05:00 12,7 C 80 % 1006,5 hPa 0,6 l/m 29,4 km/h (5 Bft) NW 0,00 h 0 W/m 9,4 C 4,7 C 29,4 km/h (5 Bft)
30.07.2007 06:00 12,6 C 82 % 1006,5 hPa 0,3 l/m 30,1 km/h (5 Bft) NW 0,00 h 0 W/m 9,6 C 4,3 C 30,1 km/h (5 Bft)
30.07.2007 07:00 12,9 C 80 % 1006,5 hPa 0,9 l/m 30,9 km/h (5 Bft) NW 0,00 h 0 W/m 9,6 C 4,7 C 30,9 km/h (5 Bft)
30.07.2007 08:00 12,8 C 86 % 1006,5 hPa 0,9 l/m 28,7 km/h (5 Bft) NW 0,00 h 0 W/m 10,5 C 4,9 C 28,7 km/h (5 Bft)
30.07.2007 09:00 13,4 C 84 % 1006,8 hPa 1,2 l/m 34,9 km/h (5 Bft) NW 0,00 h 0 W/m 10,8 C 4,8 C 34,9 km/h (5 Bft)
30.07.2007 10:00 14,3 C 78 % 1007,5 hPa 0,0 l/m 34,8 km/h (5 Bft) NW 0,00 h 0 W/m 10,6 C 6,0 C 34,8 km/h (5 Bft)
30.07.2007 11:00 15,2 C 73 % 1007,5 hPa 0,0 l/m 35,1 km/h (5 Bft) NW 0,00 h 0 W/m 10,5 C 7,3 C 35,1 km/h (5 Bft)
30.07.2007 12:00 15,6 C 73 % 1007,5 hPa 0,3 l/m 38,7 km/h (6 Bft) NW 0,00 h 0 W/m 10,7 C 7,3 C 38,7 km/h (6 Bft)
30.07.2007 13:00 16,2 C 70 % 1008,0 hPa 0,0 l/m 41,2 km/h (6 Bft) NW 0,00 h 0 W/m 10,7 C 8,0 C 41,2 km/h (6 Bft)
30.07.2007 14:00 16,3 C 69 % 1008,5 hPa 0,0 l/m 38,7 km/h (6 Bft) NW 0,00 h 0 W/m 10,4 C 8,3 C 38,7 km/h (6 Bft)
30.07.2007 15:00 16,6 C 69 % 1008,7 hPa 0,0 l/m 39,8 km/h (6 Bft) NW 0,00 h 0 W/m 10,8 C 8,7 C 39,8 km/h (6 Bft)
30.07.2007 16:00 15,5 C 74 % 1009,1 hPa 0,6 l/m 38,1 km/h (6 Bft) NW 0,00 h 0 W/m 10,8 C 7,4 C 38,1 km/h (6 Bft)
30.07.2007 17:00 14,8 C 80 % 1009,5 hPa 0,0 l/m 34,3 km/h (5 Bft) NW 0,00 h 0 W/m 11,3 C 6,8 C 34,3 km/h (5 Bft)
30.07.2007 18:00 15,0 C 77 % 1009,5 hPa 0,3 l/m 37,3 km/h (5 Bft) NW 0,00 h 0 W/m 11,0 C 6,7 C 37,3 km/h (5 Bft)
30.07.2007 19:00 14,6 C 79 % 1009,5 hPa 0,0 l/m 35,1 km/h (5 Bft) NW 0,00 h 0 W/m 11,0 C 6,4 C 35,1 km/h (5 Bft)
30.07.2007 20:00 14,0 C 82 % 1009,8 hPa 0,0 l/m 35,7 km/h (5 Bft) NW 0,00 h 0 W/m 11,0 C 5,5 C 35,7 km/h (5 Bft)
30.07.2007 21:00 14,1 C 81 % 1010,3 hPa 0,0 l/m 33,0 km/h (5 Bft) NW 0,00 h 0 W/m 11,0 C 6,0 C 33,0 km/h (5 Bft)
30.07.2007 22:00 14,3 C 81 % 1010,5 hPa 0,3 l/m 31,4 km/h (5 Bft) NW 0,00 h 0 W/m 11,1 C 6,6 C 31,4 km/h (5 Bft)
30.07.2007 23:00 14,3 C 79 % 1010,5 hPa 0,0 l/m 36,3 km/h (5 Bft) N-NW 0,00 h 0 W/m 10,8 C 5,8 C 36,3 km/h (5 Bft)
31.07.2007 00:00 13,8 C 81 % 1010,6 hPa 0,3 l/m 36,5 km/h (5 Bft) N-NW 0,00 h 0 W/m 10,7 C 5,1 C 36,5 km/h (5 Bft)
31.07.2007 01:00 13,7 C 83 % 1010,6 hPa 0,0 l/m 35,9 km/h (5 Bft) N-NW 0,00 h 0 W/m 10,8 C 5,0 C 35,9 km/h (5 Bft)
31.07.2007 02:00 14,0 C 80 % 1010,9 hPa 0,3 l/m 31,8 km/h (5 Bft) N-NW 0,00 h 0 W/m 10,7 C 6,2 C 31,8 km/h (5 Bft)
31.07.2007 03:00 14,3 C 77 % 1011,2 hPa 0,0 l/m 34,7 km/h (5 Bft) N-NW 0,00 h 0 W/m 10,2 C 6,1 C 34,7 km/h (5 Bft)
31.07.2007 04:00 14,1 C 78 % 1011,5 hPa 0,0 l/m 32,1 km/h (5 Bft) NW 0,00 h 0 W/m 10,3 C 6,2 C 32,1 km/h (5 Bft)
31.07.2007 05:00 14,0 C 78 % 1011,5 hPa 0,0 l/m 33,4 km/h (5 Bft) NW 0,00 h 0 W/m 10,2 C 5,9 C 33,4 km/h (5 Bft)
31.07.2007 06:00 14,3 C 75 % 1011,5 hPa 0,0 l/m 32,8 km/h (5 Bft) N-NW 0,00 h 0 W/m 9,9 C 6,3 C 32,8 km/h (5 Bft)
31.07.2007 07:00 14,5 C 72 % 1012,0 hPa 0,0 l/m 31,5 km/h (5 Bft) N-NW 0,00 h 0 W/m 9,5 C 6,8 C 31,5 km/h (5 Bft)
31.07.2007 08:00 15,2 C 64 % 1012,5 hPa 0,0 l/m 33,8 km/h (5 Bft) N-NW 0,00 h 0 W/m 8,4 C 7,5 C 33,8 km/h (5 Bft)
31.07.2007 09:00 15,1 C 67 % 1013,4 hPa 0,0 l/m 31,9 km/h (5 Bft) N-NW 0,00 h 0 W/m 9,1 C 7,6 C 31,9 km/h (5 Bft)
31.07.2007 10:00 17,3 C 59 % 1013,5 hPa 0,0 l/m 32,5 km/h (5 Bft) NW 0,00 h 0 W/m 9,1 C 10,6 C 32,5 km/h (5 Bft)
31.07.2007 11:00 17,8 C 57 % 1013,9 hPa 0,0 l/m 33,1 km/h (5 Bft) NW 0,00 h 0 W/m 9,2 C 11,3 C 33,1 km/h (5 Bft)
31.07.2007 12:00 18,5 C 54 % 1014,5 hPa 0,0 l/m 31,1 km/h (5 Bft) NW 0,00 h 0 W/m 8,9 C 12,5 C 31,1 km/h (5 Bft)
31.07.2007 13:00 18,6 C 57 % 1014,5 hPa 0,0 l/m 33,4 km/h (5 Bft) N-NW 0,00 h 0 W/m 9,9 C 12,4 C 33,4 km/h (5 Bft)
31.07.2007 14:00 18,5 C 59 % 1014,6 hPa 0,0 l/m 30,4 km/h (5 Bft) NW 0,00 h 0 W/m 10,2 C 12,7 C 30,4 km/h (5 Bft)
31.07.2007 15:00 18,6 C 62 % 1015,3 hPa 0,0 l/m 29,3 km/h (5 Bft) NW 0,00 h 0 W/m 11,2 C 12,8 C 29,3 km/h (5 Bft)
31.07.2007 16:00 18,8 C 61 % 1015,5 hPa 0,0 l/m 28,1 km/h (5 Bft) NW 0,00 h 0 W/m 11,1 C 13,3 C 28,1 km/h (5 Bft)
31.07.2007 17:00 17,5 C 63 % 1015,5 hPa 0,0 l/m 29,5 km/h (5 Bft) NW 0,00 h 0 W/m 10,3 C 11,4 C 29,5 km/h (5 Bft)
31.07.2007 18:00 16,7 C 68 % 1015,5 hPa 0,0 l/m 28,3 km/h (5 Bft) N-NW 0,00 h 0 W/m 10,7 C 10,4 C 28,3 km/h (5 Bft)
31.07.2007 19:00 16,2 C 72 % 1015,5 hPa 0,6 l/m 24,6 km/h (4 Bft) NW 0,00 h 0 W/m 11,0 C 10,3 C 24,6 km/h (4 Bft)
31.07.2007 20:00 15,1 C 80 % 1015,5 hPa 0,0 l/m 24,0 km/h (4 Bft) NW 0,00 h 0 W/m 11,6 C 9,0 C 24,0 km/h (4 Bft)
31.07.2007 21:00 14,8 C 78 % 1015,5 hPa 0,0 l/m 20,3 km/h (4 Bft) NW 0,00 h 0 W/m 11,0 C 9,4 C 20,3 km/h (4 Bft)
31.07.2007 22:00 14,4 C 79 % 1015,5 hPa 0,0 l/m 16,6 km/h (3 Bft) NW 0,00 h 0 W/m 10,9 C 10,1 C 16,6 km/h (3 Bft)
31.07.2007 23:00 14,2 C 80 % 1015,5 hPa 0,0 l/m 14,5 km/h (3 Bft) NW 0,00 h 0 W/m 10,9 C 10,5 C 14,5 km/h (3 Bft)
01.08.2007 00:00 14,9 C 78 % 1015,5 hPa 0,0 l/m 18,1 km/h (3 Bft) NW 0,00 h 0 W/m 11,0 C 10,3 C 18,1 km/h (3 Bft)
01.08.2007 01:00 15,1 C 76 % 1015,5 hPa 0,0 l/m 14,4 km/h (3 Bft) W 0,00 h 0 W/m 10,9 C 11,7 C 14,4 km/h (3 Bft)
01.08.2007 02:00 14,9 C 84 % 1015,5 hPa 0,0 l/m 15,4 km/h (3 Bft) W 0,00 h 0 W/m 12,1 C 11,0 C 15,4 km/h (3 Bft)
01.08.2007 03:00 14,9 C 86 % 1015,5 hPa 0,0 l/m 17,6 km/h (3 Bft) W 0,00 h 0 W/m 12,5 C 10,3 C 17,6 km/h (3 Bft)
01.08.2007 04:00 14,8 C 85 % 1015,5 hPa 0,0 l/m 14,2 km/h (3 Bft) W 0,00 h 0 W/m 12,4 C 11,3 C 14,2 km/h (3 Bft)
01.08.2007 05:00 14,5 C 86 % 1015,5 hPa 0,0 l/m 14,2 km/h (3 Bft) W 0,00 h 0 W/m 12,2 C 10,9 C 14,2 km/h (3 Bft)
01.08.2007 06:00 14,3 C 87 % 1015,5 hPa 0,0 l/m 14,1 km/h (3 Bft) W 0,00 h 0 W/m 12,2 C 10,7 C 14,1 km/h (3 Bft)
01.08.2007 07:00 14,8 C 86 % 1015,5 hPa 0,0 l/m 17,4 km/h (3 Bft) W 0,00 h 0 W/m 12,5 C 10,2 C 17,4 km/h (3 Bft)
01.08.2007 08:00 15,4 C 84 % 1015,5 hPa 0,0 l/m 21,8 km/h (4 Bft) W 0,00 h 0 W/m 12,8 C 9,9 C 21,8 km/h (4 Bft)
01.08.2007 09:00 16,1 C 82 % 1016,1 hPa 0,0 l/m 23,3 km/h (4 Bft) W 0,00 h 0 W/m 12,9 C 10,4 C 23,3 km/h (4 Bft)
01.08.2007 10:00 18,9 C 71 % 1016,5 hPa 0,0 l/m 22,8 km/h (4 Bft) W 0,00 h 0 W/m 13,4 C 14,3 C 22,8 km/h (4 Bft)
01.08.2007 11:00 19,0 C 70 % 1016,5 hPa 0,0 l/m 22,7 km/h (4 Bft) W 0,00 h 0 W/m 13,4 C 14,4 C 22,7 km/h (4 Bft)
01.08.2007 12:00 20,0 C 64 % 1016,5 hPa 0,0 l/m 20,8 km/h (4 Bft) W 0,00 h 0 W/m 13,0 C 16,1 C 20,8 km/h (4 Bft)
01.08.2007 13:00 20,8 C 58 % 1016,3 hPa 0,0 l/m 16,8 km/h (3 Bft) W 0,00 h 0 W/m 12,2 C 17,9 C 16,8 km/h (3 Bft)
01.08.2007 14:00 21,4 C 50 % 1015,5 hPa 0,0 l/m 16,1 km/h (3 Bft) W 0,00 h 0 W/m 10,5 C 18,8 C 16,1 km/h (3 Bft)
01.08.2007 15:00 21,9 C 45 % 1015,5 hPa 0,0 l/m 12,1 km/h (2 Bft) W-NW 0,00 h 0 W/m 9,3 C 20,2 C 12,1 km/h (2 Bft)
01.08.2007 16:00 22,0 C 46 % 1014,8 hPa 0,0 l/m 10,7 km/h (2 Bft) NW 0,00 h 0 W/m 9,9 C 20,7 C 10,7 km/h (2 Bft)
01.08.2007 17:00 21,2 C 49 % 1014,5 hPa 0,0 l/m 9,2 km/h (2 Bft) N 0,00 h 0 W/m 10,1 C 20,3 C 9,2 km/h (2 Bft)
01.08.2007 18:00 20,4 C 54 % 1014,0 hPa 0,0 l/m 6,5 km/h (2 Bft) N 0,00 h 0 W/m 10,8 C 19,8 C 6,5 km/h (2 Bft)
01.08.2007 19:00 19,5 C 59 % 1013,4 hPa 0,0 l/m 3,3 km/h (1 Bft) O 0,00 h 0 W/m 11,4 C 19,5 C 3,3 km/h (1 Bft)
01.08.2007 20:00 18,2 C 64 % 1012,5 hPa 0,0 l/m 0,4 km/h (0 Bft) O 0,00 h 0 W/m 11,2 C 18,2 C 0,4 km/h (0 Bft)
01.08.2007 21:00 17,1 C 69 % 1012,5 hPa 0,0 l/m 0,3 km/h (0 Bft) SO 0,00 h 0 W/m 11,3 C 17,1 C 0,3 km/h (0 Bft)
01.08.2007 22:00 16,9 C 71 % 1012,5 hPa 0,0 l/m 0,6 km/h (0 Bft) O-SO 0,00 h 0 W/m 11,5 C 16,9 C 0,6 km/h (0 Bft)
01.08.2007 23:00 16,2 C 73 % 1012,4 hPa 0,0 l/m 2,0 km/h (1 Bft) SO 0,00 h 0 W/m 11,4 C 16,2 C 2,0 km/h (1 Bft)
02.08.2007 00:00 15,6 C 73 % 1011,5 hPa 0,0 l/m 4,2 km/h (1 Bft) S-SO 0,00 h 0 W/m 10,7 C 15,6 C 4,2 km/h (1 Bft)
02.08.2007 01:00 15,1 C 74 % 1011,3 hPa 0,0 l/m 5,8 km/h (2 Bft) S-SO 0,00 h 0 W/m 10,4 C 15,0 C 5,8 km/h (2 Bft)
02.08.2007 02:00 15,0 C 74 % 1010,3 hPa 0,0 l/m 9,0 km/h (2 Bft) S 0,00 h 0 W/m 10,5 C 13,6 C 9,0 km/h (2 Bft)
02.08.2007 03:00 14,8 C 74 % 1009,2 hPa 0,0 l/m 11,8 km/h (2 Bft) S 0,00 h 0 W/m 10,3 C 12,2 C 11,8 km/h (2 Bft)
02.08.2007 04:00 14,5 C 75 % 1008,5 hPa 0,0 l/m 13,7 km/h (3 Bft) S 0,00 h 0 W/m 10,2 C 11,1 C 13,7 km/h (3 Bft)
02.08.2007 05:00 14,3 C 77 % 1008,5 hPa 0,0 l/m 14,2 km/h (3 Bft) S 0,00 h 0 W/m 10,4 C 10,7 C 14,2 km/h (3 Bft)
02.08.2007 06:00 14,5 C 78 % 1007,9 hPa 0,0 l/m 13,2 km/h (3 Bft) S 0,00 h 0 W/m 10,8 C 11,2 C 13,2 km/h (3 Bft)
02.08.2007 07:00 15,2 C 78 % 1007,5 hPa 0,0 l/m 11,6 km/h (2 Bft) S 0,00 h 0 W/m 11,3 C 12,6 C 11,6 km/h (2 Bft)
02.08.2007 08:00 16,6 C 74 % 1007,5 hPa 0,0 l/m 11,9 km/h (2 Bft) S 0,00 h 0 W/m 12,0 C 14,2 C 11,9 km/h (2 Bft)
02.08.2007 09:00 17,7 C 72 % 1007,1 hPa 0,0 l/m 7,3 km/h (2 Bft) S 0,00 h 0 W/m 12,5 C 17,1 C 7,3 km/h (2 Bft)
02.08.2007 10:00 23,4 C 58 % 1006,5 hPa 0,0 l/m 6,0 km/h (2 Bft) S-SO 0,00 h 0 W/m 14,6 C 23,2 C 6,0 km/h (2 Bft)
02.08.2007 11:00 23,5 C 57 % 1006,5 hPa 0,0 l/m 6,2 km/h (2 Bft) NO 0,00 h 0 W/m 14,4 C 23,3 C 6,2 km/h (2 Bft)
02.08.2007 12:00 23,3 C 59 % 1006,5 hPa 0,0 l/m 5,7 km/h (2 Bft) NO 0,00 h 0 W/m 14,7 C 23,1 C 5,7 km/h (2 Bft)
02.08.2007 13:00 24,3 C 56 % 1006,5 hPa 0,0 l/m 6,0 km/h (2 Bft) O 0,00 h 0 W/m 14,9 C 24,2 C 6,0 km/h (2 Bft)
02.08.2007 14:00 24,7 C 54 % 1006,5 hPa 0,0 l/m 7,2 km/h (2 Bft) O 0,00 h 0 W/m 14,8 C 24,4 C 7,2 km/h (2 Bft)
02.08.2007 15:00 24,4 C 56 % 1006,5 hPa 0,0 l/m 7,6 km/h (2 Bft) S-SW 0,00 h 0 W/m 15,0 C 23,9 C 7,6 km/h (2 Bft)
02.08.2007 16:00 20,8 C 66 % 1006,8 hPa 0,0 l/m 8,7 km/h (2 Bft) N-NW 0,00 h 0 W/m 14,1 C 19,9 C 8,7 km/h (2 Bft)
02.08.2007 17:00 19,4 C 71 % 1006,8 hPa 0,0 l/m 7,5 km/h (2 Bft) N-NW 0,00 h 0 W/m 14,0 C 18,8 C 7,5 km/h (2 Bft)
02.08.2007 18:00 19,4 C 74 % 1007,5 hPa 0,0 l/m 12,2 km/h (2 Bft) NW 0,00 h 0 W/m 14,6 C 17,3 C 12,2 km/h (2 Bft)
02.08.2007 19:00 19,4 C 75 % 1007,5 hPa 0,0 l/m 13,0 km/h (3 Bft) N-NW 0,00 h 0 W/m 14,9 C 17,1 C 13,0 km/h (3 Bft)
02.08.2007 20:00 18,7 C 76 % 1008,3 hPa 0,0 l/m 11,2 km/h (2 Bft) N-NW 0,00 h 0 W/m 14,5 C 17,0 C 11,2 km/h (2 Bft)
02.08.2007 21:00 18,1 C 81 % 1008,5 hPa 0,0 l/m 10,5 km/h (2 Bft) NW 0,00 h 0 W/m 14,7 C 16,4 C 10,5 km/h (2 Bft)
02.08.2007 22:00 17,3 C 82 % 1009,5 hPa 0,0 l/m 12,5 km/h (2 Bft) NW 0,00 h 0 W/m 14,2 C 14,8 C 12,5 km/h (2 Bft)
02.08.2007 23:00 16,8 C 84 % 1010,1 hPa 0,0 l/m 12,8 km/h (3 Bft) NW 0,00 h 0 W/m 14,1 C 14,2 C 12,8 km/h (3 Bft)
03.08.2007 00:00 16,6 C 83 % 1010,5 hPa 0,0 l/m 17,7 km/h (3 Bft) N-NW 0,00 h 0 W/m 13,7 C 12,4 C 17,7 km/h (3 Bft)
03.08.2007 01:00 16,5 C 82 % 1011,3 hPa 0,0 l/m 20,4 km/h (4 Bft) N-NW 0,00 h 0 W/m 13,5 C 11,6 C 20,4 km/h (4 Bft)
03.08.2007 02:00 16,3 C 80 % 1011,5 hPa 0,0 l/m 19,1 km/h (3 Bft) N-NW 0,00 h 0 W/m 12,8 C 11,6 C 19,1 km/h (3 Bft)
03.08.2007 03:00 16,0 C 79 % 1012,0 hPa 0,0 l/m 18,9 km/h (3 Bft) N-NW 0,00 h 0 W/m 12,3 C 11,4 C 18,9 km/h (3 Bft)
03.08.2007 04:00 16,0 C 79 % 1012,5 hPa 0,0 l/m 21,8 km/h (4 Bft) N 0,00 h 0 W/m 12,3 C 10,7 C 21,8 km/h (4 Bft)
03.08.2007 05:00 15,9 C 78 % 1013,1 hPa 0,0 l/m 24,1 km/h (4 Bft) N 0,00 h 0 W/m 12,2 C 10,1 C 24,1 km/h (4 Bft)
03.08.2007 06:00 15,8 C 76 % 1013,8 hPa 0,0 l/m 25,6 km/h (4 Bft) N-NW 0,00 h 0 W/m 11,6 C 9,5 C 25,6 km/h (4 Bft)
03.08.2007 07:00 16,0 C 72 % 1014,8 hPa 0,0 l/m 22,0 km/h (4 Bft) N 0,00 h 0 W/m 11,0 C 10,7 C 22,0 km/h (4 Bft)
03.08.2007 08:00 17,1 C 68 % 1015,6 hPa 0,0 l/m 19,8 km/h (3 Bft) N 0,00 h 0 W/m 11,1 C 12,5 C 19,8 km/h (3 Bft)
03.08.2007 09:00 17,4 C 66 % 1016,5 hPa 0,0 l/m 19,4 km/h (3 Bft) N 0,00 h 0 W/m 10,9 C 13,0 C 19,4 km/h (3 Bft)
03.08.2007 10:00 20,3 C 59 % 1017,3 hPa 0,0 l/m 21,1 km/h (4 Bft) N 0,00 h 0 W/m 11,9 C 16,4 C 21,1 km/h (4 Bft)
03.08.2007 11:00 20,3 C 58 % 1018,0 hPa 0,0 l/m 22,8 km/h (4 Bft) N 0,00 h 0 W/m 11,8 C 16,2 C 22,8 km/h (4 Bft)
03.08.2007 12:00 21,2 C 56 % 1018,5 hPa 0,0 l/m 21,0 km/h (4 Bft) N-NW 0,00 h 0 W/m 12,1 C 17,6 C 21,0 km/h (4 Bft)
03.08.2007 13:00 20,9 C 57 % 1019,4 hPa 0,0 l/m 19,8 km/h (4 Bft) NW 0,00 h 0 W/m 12,2 C 17,5 C 19,8 km/h (4 Bft)
03.08.2007 14:00 21,2 C 55 % 1019,5 hPa 0,0 l/m 19,6 km/h (3 Bft) NW 0,00 h 0 W/m 11,9 C 17,9 C 19,6 km/h (3 Bft)
03.08.2007 15:00 21,1 C 55 % 1019,6 hPa 0,0 l/m 18,7 km/h (3 Bft) NW 0,00 h 0 W/m 11,7 C 17,8 C 18,7 km/h (3 Bft)
03.08.2007 16:00 20,9 C 56 % 1020,3 hPa 0,0 l/m 17,6 km/h (3 Bft) NW 0,00 h 0 W/m 11,8 C 17,8 C 17,6 km/h (3 Bft)
03.08.2007 17:00 20,3 C 58 % 1020,5 hPa 0,0 l/m 17,7 km/h (3 Bft) NW 0,00 h 0 W/m 11,6 C 17,1 C 17,7 km/h (3 Bft)
03.08.2007 18:00 19,5 C 59 % 1020,5 hPa 0,0 l/m 14,7 km/h (3 Bft) NW 0,00 h 0 W/m 11,3 C 16,8 C 14,7 km/h (3 Bft)
03.08.2007 19:00 18,8 C 61 % 1020,5 hPa 0,0 l/m 13,2 km/h (3 Bft) NW 0,00 h 0 W/m 11,2 C 16,3 C 13,2 km/h (3 Bft)
03.08.2007 20:00 18,0 C 64 % 1020,5 hPa 0,0 l/m 6,7 km/h (2 Bft) NW 0,00 h 0 W/m 11,2 C 17,6 C 6,7 km/h (2 Bft)
03.08.2007 21:00 17,3 C 68 % 1021,1 hPa 0,0 l/m 0,0 km/h (0 Bft) N 0,00 h 0 W/m 11,4 C 17,3 C 0,0 km/h (0 Bft)
03.08.2007 22:00 17,3 C 69 % 1021,5 hPa 0,0 l/m 0,0 km/h (0 Bft) N 0,00 h 0 W/m 11,6 C 17,3 C 0,0 km/h (0 Bft)
03.08.2007 23:00 16,6 C 71 % 1021,5 hPa 0,0 l/m 0,0 km/h (0 Bft) N 0,00 h 0 W/m 11,2 C 16,6 C 0,0 km/h (0 Bft)
04.08.2007 00:00 15,9 C 72 % 1021,4 hPa 0,0 l/m 2,5 km/h (1 Bft) SW 0,00 h 0 W/m 10,8 C 15,9 C 2,5 km/h (1 Bft)
04.08.2007 01:00 15,4 C 72 % 1020,5 hPa 0,0 l/m 1,6 km/h (1 Bft) S-SW 0,00 h 0 W/m 10,4 C 15,4 C 1,6 km/h (1 Bft)
04.08.2007 02:00 15,4 C 72 % 1020,5 hPa 0,0 l/m 4,6 km/h (1 Bft) SW 0,00 h 0 W/m 10,4 C 15,4 C 4,6 km/h (1 Bft)
04.08.2007 03:00 15,3 C 74 % 1020,5 hPa 0,0 l/m 3,9 km/h (1 Bft) SW 0,00 h 0 W/m 10,7 C 15,3 C 3,9 km/h (1 Bft)
04.08.2007 04:00 15,2 C 74 % 1020,5 hPa 0,0 l/m 3,7 km/h (1 Bft) SW 0,00 h 0 W/m 10,6 C 15,1 C 3,7 km/h (1 Bft)
04.08.2007 05:00 14,9 C 75 % 1020,5 hPa 0,0 l/m 3,3 km/h (1 Bft) SW 0,00 h 0 W/m 10,5 C 14,9 C 3,3 km/h (1 Bft)
04.08.2007 06:00 15,1 C 75 % 1020,5 hPa 0,0 l/m 3,5 km/h (1 Bft) S-SW 0,00 h 0 W/m 10,7 C 15,1 C 3,5 km/h (1 Bft)
04.08.2007 07:00 16,5 C 77 % 1020,5 hPa 0,0 l/m 6,5 km/h (2 Bft) W-SW 0,00 h 0 W/m 12,5 C 15,6 C 6,5 km/h (2 Bft)
04.08.2007 08:00 17,5 C 76 % 1020,5 hPa 0,0 l/m 9,1 km/h (2 Bft) W-SW 0,00 h 0 W/m 13,3 C 16,3 C 9,1 km/h (2 Bft)
04.08.2007 09:00 18,7 C 70 % 1021,1 hPa 0,0 l/m 17,7 km/h (3 Bft) W-SW 0,00 h 0 W/m 13,2 C 15,2 C 17,7 km/h (3 Bft)
04.08.2007 10:00 19,8 C 65 % 1020,6 hPa 0,0 l/m 19,8 km/h (4 Bft) W-SW 0,00 h 0 W/m 13,2 C 16,1 C 19,8 km/h (4 Bft)
04.08.2007 11:00 21,8 C 59 % 1020,8 hPa 0,0 l/m 25,3 km/h (4 Bft) W-SW 0,00 h 0 W/m 13,4 C 17,8 C 25,3 km/h (4 Bft)
04.08.2007 12:00 23,2 C 55 % 1020,5 hPa 0,0 l/m 24,2 km/h (4 Bft) W-SW 0,00 h 0 W/m 13,5 C 19,8 C 24,2 km/h (4 Bft)
04.08.2007 13:00 24,0 C 50 % 1020,5 hPa 0,0 l/m 24,4 km/h (4 Bft) W 0,00 h 0 W/m 12,9 C 20,9 C 24,4 km/h (4 Bft)
04.08.2007 14:00 24,8 C 48 % 1020,5 hPa 0,0 l/m 21,2 km/h (4 Bft) W 0,00 h 0 W/m 13,1 C 22,3 C 21,2 km/h (4 Bft)
04.08.2007 15:00 24,9 C 45 % 1020,5 hPa 0,0 l/m 22,2 km/h (4 Bft) W 0,00 h 0 W/m 12,1 C 22,3 C 22,2 km/h (4 Bft)
04.08.2007 16:00 25,2 C 46 % 1020,1 hPa 0,0 l/m 15,4 km/h (3 Bft) W 0,00 h 0 W/m 12,7 C 23,5 C 15,4 km/h (3 Bft)
04.08.2007 17:00 23,6 C 56 % 1019,5 hPa 0,0 l/m 13,3 km/h (3 Bft) N-NW 0,00 h 0 W/m 14,3 C 21,9 C 13,3 km/h (3 Bft)
04.08.2007 18:00 21,9 C 65 % 1020,2 hPa 0,0 l/m 12,9 km/h (3 Bft) N-NW 0,00 h 0 W/m 15,0 C 20,0 C 12,9 km/h (3 Bft)
04.08.2007 19:00 21,0 C 70 % 1020,3 hPa 0,0 l/m 10,0 km/h (2 Bft) N 0,00 h 0 W/m 15,2 C 19,8 C 10,0 km/h (2 Bft)
04.08.2007 20:00 20,5 C 71 % 1019,9 hPa 0,0 l/m 5,2 km/h (1 Bft) N 0,00 h 0 W/m 15,1 C 20,3 C 5,2 km/h (1 Bft)
04.08.2007 21:00 19,8 C 72 % 1020,5 hPa 0,0 l/m 0,0 km/h (0 Bft) N 0,00 h 0 W/m 14,5 C 19,8 C 0,0 km/h (0 Bft)
04.08.2007 22:00 17,2 C 80 % 1020,5 hPa 0,0 l/m 0,0 km/h (0 Bft) N 0,00 h 0 W/m 13,7 C 17,2 C 0,0 km/h (0 Bft)
04.08.2007 23:00 16,4 C 84 % 1020,5 hPa 0,0 l/m 0,0 km/h (0 Bft) N 0,00 h 0 W/m 13,7 C 16,4 C 0,0 km/h (0 Bft)
05.08.2007 00:00 15,6 C 86 % 1020,3 hPa 0,0 l/m 0,8 km/h (0 Bft) S 0,00 h 0 W/m 13,3 C 15,6 C 0,8 km/h (0 Bft)
05.08.2007 01:00 15,7 C 89 % 1019,5 hPa 0,0 l/m 3,8 km/h (1 Bft) S 0,00 h 0 W/m 13,8 C 15,6 C 3,8 km/h (1 Bft)
05.08.2007 02:00 15,7 C 90 % 1019,5 hPa 0,0 l/m 7,2 km/h (2 Bft) S 0,00 h 0 W/m 14,1 C 15,2 C 7,2 km/h (2 Bft)
05.08.2007 03:00 15,2 C 90 % 1019,5 hPa 0,0 l/m 8,3 km/h (2 Bft) S 0,00 h 0 W/m 13,6 C 14,1 C 8,3 km/h (2 Bft)
05.08.2007 04:00 15,1 C 91 % 1018,8 hPa 0,0 l/m 7,6 km/h (2 Bft) S 0,00 h 0 W/m 13,6 C 14,4 C 7,6 km/h (2 Bft)
05.08.2007 05:00 14,9 C 91 % 1018,5 hPa 0,0 l/m 7,3 km/h (2 Bft) S 0,00 h 0 W/m 13,5 C 14,4 C 7,3 km/h (2 Bft)
05.08.2007 06:00 15,0 C 91 % 1018,5 hPa 0,0 l/m 9,4 km/h (2 Bft) S 0,00 h 0 W/m 13,6 C 13,5 C 9,4 km/h (2 Bft)
05.08.2007 07:00 15,8 C 90 % 1018,5 hPa 0,0 l/m 8,1 km/h (2 Bft) S 0,00 h 0 W/m 14,1 C 14,8 C 8,1 km/h (2 Bft)
05.08.2007 08:00 17,9 C 86 % 1018,5 hPa 0,0 l/m 8,9 km/h (2 Bft) S 0,00 h 0 W/m 15,4 C 16,8 C 8,9 km/h (2 Bft)
05.08.2007 09:00 20,5 C 77 % 1018,5 hPa 0,0 l/m 11,8 km/h (2 Bft) S 0,00 h 0 W/m 16,4 C 18,7 C 11,8 km/h (2 Bft)
05.08.2007 10:00 26,9 C 58 % 1018,3 hPa 0,0 l/m 13,9 km/h (3 Bft) S 0,00 h 0 W/m 17,9 C 25,8 C 13,9 km/h (3 Bft)
05.08.2007 11:00 27,7 C 51 % 1017,8 hPa 0,0 l/m 15,7 km/h (3 Bft) S 0,00 h 0 W/m 16,5 C 26,6 C 15,7 km/h (3 Bft)
05.08.2007 12:00 28,0 C 46 % 1017,2 hPa 0,0 l/m 16,2 km/h (3 Bft) S 0,00 h 0 W/m 15,3 C 26,9 C 16,2 km/h (3 Bft)
05.08.2007 13:00 28,8 C 44 % 1016,5 hPa 0,0 l/m 17,1 km/h (3 Bft) S 0,00 h 0 W/m 15,3 C 27,8 C 17,1 km/h (3 Bft)
05.08.2007 14:00 29,6 C 42 % 1015,8 hPa 0,0 l/m 17,3 km/h (3 Bft) S 0,00 h 0 W/m 15,3 C 28,8 C 17,3 km/h (3 Bft)
05.08.2007 15:00 29,7 C 41 % 1015,5 hPa 0,0 l/m 16,9 km/h (3 Bft) S 0,00 h 0 W/m 14,9 C 28,9 C 16,9 km/h (3 Bft)
05.08.2007 16:00 28,6 C 42 % 1014,5 hPa 0,0 l/m 20,3 km/h (4 Bft) S 0,00 h 0 W/m 14,5 C 27,3 C 20,3 km/h (4 Bft)
05.08.2007 17:00 28,0 C 44 % 1013,8 hPa 0,0 l/m 18,1 km/h (3 Bft) S 0,00 h 0 W/m 14,5 C 26,7 C 18,1 km/h (3 Bft)
05.08.2007 18:00 27,4 C 48 % 1013,5 hPa 0,0 l/m 15,3 km/h (3 Bft) S 0,00 h 0 W/m 15,2 C 26,2 C 15,3 km/h (3 Bft)
05.08.2007 19:00 27,3 C 51 % 1012,8 hPa 0,0 l/m 11,3 km/h (2 Bft) S-SO 0,00 h 0 W/m 16,1 C 26,6 C 11,3 km/h (2 Bft)
05.08.2007 20:00 25,0 C 58 % 1012,5 hPa 0,0 l/m 12,1 km/h (2 Bft) SO 0,00 h 0 W/m 16,0 C 23,8 C 12,1 km/h (2 Bft)
05.08.2007 21:00 23,1 C 60 % 1012,5 hPa 0,0 l/m 11,2 km/h (2 Bft) S-SO 0,00 h 0 W/m 15,0 C 21,9 C 11,2 km/h (2 Bft)
05.08.2007 22:00 22,3 C 61 % 1012,5 hPa 0,0 l/m 14,0 km/h (3 Bft) S 0,00 h 0 W/m 14,3 C 20,3 C 14,0 km/h (3 Bft)
05.08.2007 23:00 21,6 C 63 % 1012,4 hPa 0,0 l/m 16,0 km/h (3 Bft) S 0,00 h 0 W/m 14,1 C 19,0 C 16,0 km/h (3 Bft)
Min-Datum _ 30.07.07 05.08.07 30.07.07 - 01.08.07 - - - 31.07.07 30.07.07 01.08.07
_ Min-Zeit 03:18 15:13 00:03 - 20:30 - - - 08:39 03:18 20:30
Minimum _ 12,0 C 38 % 1006,5 hPa - 0,0 km/h (0 Bft) - - - 7,6 C 2,7 C 0,0 km/h (0 Bft)
Max-Datum _ 05.08.07 05.08.07 03.08.07 30.07.07 31.07.07 - 30.07.07 30.07.07 05.08.07 05.08.07 31.07.07
_ Max-Zeit 15:08 03:33 21:27 03:38 03:59 - 00:03 00:03 09:58 15:08 03:59
Maximum _ 30,4 C 91 % 1021,5 hPa 2,7 l/m 54,5 km/h
N-NW (7 Bft)
- 0,00 h 0 W/m 19,1 C 29,8 C 54,5 km/h
N-NW (7 Bft)
Durchschnitt _ 18,0 C 70 % 1014,1 hPa #10,5 l/m 17,9 km/h (3 Bft) NW #0 min. 0 W/m 12,1 C 14,5 C 17,9 km/h (3 Bft)
copyright by Holger Just